Aeroboteco Virtual Airlines! Uma nuvem a frente.



 INFORMAÇÕES METEOROLÓGICAS
METAR FOR GVBA
ADDS - METARS form results

(2056 UTC 23 March 2019)
Data provider http://aviationweather.gov/metar/data/
 
Forecast for: GVBA (RABIL AIRPORT , CV)
Text: TAF GVBA 231100Z 2312/2418 02014KT 9999 SCT014
Forecast period: 1200 UTC 23 March 2019 to 1800 UTC 24 March 2019
Forecast type: FROM: standard forecast or significant change
Winds: from the NNE (20 degrees) at 16 MPH (14 knots; 7.2 m/s)
Visibility: 6 or more miles 10+ km)
Ceiling: at least 12,000 feet AGL
Clouds: scattered clouds at 1400 feet AGL
Weather: no significant weather forecast for this period
Text: TEMPO 2322/2406 VRB03KT BKN014
Forecast period: 2200 UTC 23 March 2019 to 0600 UTC 24 March 2019
Forecast type: TEMPORARY: The following changes expected for less than half the time period
Winds: variable direction winds at 3 MPH (3 knots; 1.5 m/s)
Visibility: missing
Ceiling: 1400 feet AGL
Clouds: broken clouds at 1400 feet AGL
Weather: no significant weather forecast for this period

 MAPA DO AEROPORTO

 INFORMAÇÕES DA PISTA
Pista 03 Tamanho da pista 4007 ft Largura da pista 98 ft
Elevação da pista 69 ft Ranhura da pista 0 ft Proa da pista 16
Pista 21 Tamanho da pista 4007 ft Largura da pista 98 ft
Elevação da pista 69 ft Ranhura da pista 0 ft Proa da pista 196

 FREQUÊNCIAS DO AEROPORTO

 AUXÍLIOS DE NAVEGAÇÃO PRÓXIMOS AO AEROPORTO
Tipo NDB Nome Rabil Frequência 341 KHZ